createdAt,value
2022-08-10T00:01:51.177Z,23.05
2022-08-10T00:04:21.300Z,23.03
2022-08-10T00:06:53.337Z,23.04
2022-08-10T00:09:21.450Z,23.08
2022-08-10T00:11:49.276Z,23.12
2022-08-10T00:14:16.891Z,23.11
2022-08-10T00:16:46.685Z,23.08
2022-08-10T00:19:16.470Z,23.05
2022-08-10T00:21:45.914Z,23.03
2022-08-10T00:24:14.053Z,22.99
2022-08-10T00:28:02.053Z,22.97
2022-08-10T00:29:30.730Z,22.96
2022-08-10T00:31:59.512Z,22.93
2022-08-10T00:34:31.619Z,22.91
2022-08-10T00:37:00.327Z,22.89
2022-08-10T00:39:29.317Z,22.89
2022-08-10T00:42:06.949Z,22.90
2022-08-10T00:44:46.435Z,22.88
2022-08-10T00:47:35.943Z,22.88
2022-08-10T00:50:07.816Z,22.90
2022-08-10T00:52:36.774Z,22.87
2022-08-10T00:55:05.580Z,22.86
2022-08-10T00:57:33.315Z,22.81
2022-08-10T01:00:00.941Z,22.78
2022-08-10T01:02:30.022Z,22.77
2022-08-10T01:05:01.738Z,22.76
2022-08-10T01:07:51.621Z,22.72
2022-08-10T01:10:33.823Z,22.69
2022-08-10T01:13:26.620Z,22.64
2022-08-10T01:16:00.496Z,22.60
2022-08-10T01:18:47.276Z,22.56
2022-08-10T01:21:53.907Z,22.51
2022-08-10T01:24:30.594Z,22.50
2022-08-10T01:27:04.231Z,22.47
2022-08-10T01:30:05.385Z,22.45
2022-08-10T01:33:20.188Z,22.43
2022-08-10T01:36:05.732Z,22.36
2022-08-10T01:38:34.952Z,22.33
2022-08-10T01:41:07.026Z,22.28
2022-08-10T01:43:39.255Z,22.25
2022-08-10T01:46:08.160Z,22.17
2022-08-10T01:48:50.605Z,22.11
2022-08-10T01:51:24.033Z,22.06
2022-08-10T01:53:55.368Z,22.02
2022-08-10T01:56:25.411Z,21.95
2022-08-10T01:58:57.408Z,21.90
2022-08-10T02:01:27.370Z,21.84
2022-08-10T02:04:03.505Z,21.81
2022-08-10T02:06:43.811Z,21.73
2022-08-10T02:09:14.853Z,21.71
2022-08-10T02:12:06.515Z,21.70
2022-08-10T02:14:34.917Z,21.67
2022-08-10T02:17:07.179Z,21.66
2022-08-10T02:19:36.788Z,21.67
2022-08-10T02:22:36.859Z,21.66
2022-08-10T02:24:53.280Z,21.65
2022-08-10T02:27:23.335Z,21.63
2022-08-10T02:29:51.564Z,21.61
2022-08-10T02:32:24.534Z,21.60
2022-08-10T02:35:07.013Z,21.60
2022-08-10T02:37:38.262Z,21.61
2022-08-10T02:40:06.523Z,21.64
2022-08-10T02:45:27.144Z,21.70
2022-08-10T02:46:01.718Z,21.78
2022-08-10T02:48:33.418Z,21.91
2022-08-10T02:51:07.271Z,22.19
2022-08-10T02:53:54.513Z,22.44
2022-08-10T02:56:46.170Z,22.60
2022-08-10T02:59:17.592Z,22.72
2022-08-10T03:01:47.997Z,22.84
2022-08-10T03:04:20.066Z,22.92
2022-08-10T03:07:11.017Z,23.06
2022-08-10T03:09:39.157Z,23.18
2022-08-10T03:12:34.857Z,23.33
2022-08-10T03:14:57.346Z,23.58
2022-08-10T03:17:25.366Z,23.55
2022-08-10T03:20:35.559Z,23.41
2022-08-10T03:22:42.089Z,23.25
2022-08-10T03:25:12.443Z,23.14
2022-08-10T03:27:41.353Z,23.21
2022-08-10T03:30:33.007Z,23.48
2022-08-10T03:32:57.798Z,23.64
2022-08-10T03:35:26.807Z,23.72
2022-08-10T03:37:59.124Z,23.70
2022-08-10T03:40:44.864Z,24.00
2022-08-10T03:43:17.248Z,25.12
2022-08-10T03:45:55.406Z,25.68
2022-08-10T03:48:32.266Z,25.80
2022-08-10T03:51:13.277Z,25.95
2022-08-10T03:54:06.230Z,25.95
2022-08-10T03:56:32.261Z,25.68
2022-08-10T03:59:01.333Z,25.62
2022-08-10T04:02:52.869Z,25.50
2022-08-10T04:04:24.036Z,25.30
2022-08-10T04:06:55.776Z,24.95
2022-08-10T04:09:29.659Z,24.73
2022-08-10T04:12:13.675Z,24.93
2022-08-10T04:14:49.420Z,26.18
2022-08-10T04:18:05.169Z,27.79
2022-08-10T04:20:35.006Z,28.44
2022-08-10T04:23:08.201Z,28.98
2022-08-10T04:25:37.445Z,29.90
2022-08-10T04:28:05.988Z,30.56
2022-08-10T04:30:36.083Z,31.10
2022-08-10T04:33:05.989Z,31.09
2022-08-10T04:35:35.002Z,30.57
2022-08-10T04:38:03.772Z,29.71
2022-08-10T04:40:32.078Z,28.66
2022-08-10T04:43:11.760Z,27.77
2022-08-10T04:45:49.357Z,27.17
2022-08-10T04:48:42.147Z,27.51
2022-08-10T04:51:18.047Z,28.22
2022-08-10T04:54:03.923Z,29.13
2022-08-10T04:56:38.788Z,29.23
2022-08-10T04:59:09.425Z,29.38
2022-08-10T05:02:30.403Z,29.65
2022-08-10T05:04:35.446Z,30.73
2022-08-10T05:07:15.995Z,30.66
2022-08-10T05:10:02.276Z,30.72
2022-08-10T05:12:38.991Z,31.40
2022-08-10T05:15:10.233Z,31.78
2022-08-10T05:17:39.322Z,31.84
2022-08-10T05:20:09.266Z,31.67
2022-08-10T05:22:44.816Z,31.27
2022-08-10T05:25:15.185Z,30.76
2022-08-10T05:27:43.739Z,30.36
2022-08-10T05:30:14.210Z,29.91
2022-08-10T05:32:59.131Z,29.51
2022-08-10T05:35:39.097Z,29.01
2022-08-10T05:38:18.321Z,28.76
2022-08-10T05:40:48.114Z,28.57
2022-08-10T05:43:22.727Z,28.73
2022-08-10T05:46:19.939Z,29.07
2022-08-10T05:48:57.116Z,29.13
2022-08-10T05:51:28.789Z,28.88
2022-08-10T05:54:02.576Z,28.93
2022-08-10T05:56:54.799Z,29.39
2022-08-10T06:00:11.146Z,30.19
2022-08-10T06:02:30.658Z,30.96
2022-08-10T06:05:05.662Z,31.58
2022-08-10T06:07:35.908Z,32.05
2022-08-10T06:10:03.995Z,32.51
2022-08-10T06:12:55.072Z,33.06
2022-08-10T06:15:50.227Z,33.57
2022-08-10T06:18:15.981Z,33.98
2022-08-10T06:20:43.849Z,34.06
2022-08-10T06:23:13.788Z,34.09
2022-08-10T06:26:09.783Z,33.97
2022-08-10T06:28:31.863Z,33.51
2022-08-10T06:31:00.727Z,32.72
2022-08-10T06:33:31.014Z,31.65
2022-08-10T06:36:05.730Z,30.67
2022-08-10T06:38:38.800Z,30.47
2022-08-10T06:41:19.968Z,30.87
2022-08-10T06:43:53.253Z,31.67
2022-08-10T06:46:22.401Z,32.48
2022-08-10T06:48:52.204Z,33.02
2022-08-10T06:51:29.091Z,33.15
2022-08-10T06:54:03.917Z,33.33
2022-08-10T06:56:37.628Z,33.37
2022-08-10T06:59:21.735Z,32.83
2022-08-10T07:02:01.517Z,32.14
2022-08-10T07:04:38.604Z,31.41
2022-08-10T07:07:07.500Z,30.81
2022-08-10T07:09:40.073Z,30.23
2022-08-10T07:12:10.810Z,30.00
2022-08-10T07:14:41.995Z,29.53
2022-08-10T07:17:16.724Z,29.16
2022-08-10T07:19:52.373Z,29.06
2022-08-10T07:23:01.649Z,28.72
2022-08-10T07:25:13.312Z,28.75
2022-08-10T07:28:00.419Z,28.92
2022-08-10T07:30:37.572Z,28.98
2022-08-10T07:33:20.761Z,29.09
2022-08-10T07:35:49.422Z,29.21
2022-08-10T07:38:21.577Z,29.37
2022-08-10T07:40:52.287Z,29.26
2022-08-10T07:43:25.833Z,29.14
2022-08-10T07:46:00.206Z,29.09
2022-08-10T07:48:31.529Z,29.18
2022-08-10T07:51:02.290Z,29.23
2022-08-10T07:53:35.813Z,29.22
2022-08-10T07:56:16.810Z,29.29
2022-08-10T07:59:10.245Z,29.23
2022-08-10T08:01:48.536Z,29.29
2022-08-10T08:04:24.320Z,29.30
2022-08-10T08:07:02.259Z,29.46
2022-08-10T08:09:35.354Z,29.61
2022-08-10T08:12:03.859Z,29.76
2022-08-10T08:14:36.881Z,29.81
2022-08-10T08:17:08.370Z,29.87
2022-08-10T08:19:45.773Z,30.00
2022-08-10T08:24:10.890Z,30.05
2022-08-10T08:25:14.522Z,29.98
2022-08-10T08:27:47.586Z,29.81
2022-08-10T08:30:26.812Z,29.73
2022-08-10T08:32:56.492Z,29.71
2022-08-10T08:35:25.119Z,29.60
2022-08-10T08:38:31.411Z,29.65
2022-08-10T08:40:43.181Z,29.73
2022-08-10T08:43:45.542Z,29.69
2022-08-10T08:46:43.691Z,29.74
2022-08-10T08:50:09.208Z,29.88
2022-08-10T08:52:42.827Z,30.08
2022-08-10T08:55:55.322Z,30.26
2022-08-10T08:58:39.319Z,30.38
2022-08-10T09:01:38.004Z,30.56
2022-08-10T09:04:47.708Z,30.83
2022-08-10T09:07:39.434Z,30.71
2022-08-10T09:10:12.196Z,30.72
2022-08-10T09:12:52.982Z,30.63
2022-08-10T09:15:40.427Z,30.67
2022-08-10T09:18:24.944Z,30.78
2022-08-10T09:21:07.179Z,30.68
2022-08-10T09:24:04.285Z,30.76
2022-08-10T09:26:43.869Z,30.94
2022-08-10T09:29:15.530Z,31.17
2022-08-10T09:31:55.517Z,31.25
2022-08-10T09:36:21.262Z,31.36
2022-08-10T09:38:04.884Z,31.52
2022-08-10T09:41:12.290Z,31.64
2022-08-10T09:44:02.941Z,31.74
2022-08-10T09:46:52.232Z,31.81
2022-08-10T09:50:55.737Z,31.81
2022-08-10T09:53:49.982Z,31.99
2022-08-10T10:03:25.962Z,32.19
2022-08-10T10:06:18.949Z,32.20
2022-08-10T10:09:12.901Z,32.29
2022-08-10T10:11:48.110Z,32.38
2022-08-10T10:14:36.346Z,32.48
2022-08-10T10:17:10.237Z,32.44
2022-08-10T10:19:59.637Z,32.23
2022-08-10T10:23:01.910Z,32.04
2022-08-10T10:25:50.196Z,31.88
2022-08-10T10:29:15.101Z,31.76
2022-08-10T10:31:39.932Z,31.60
2022-08-10T10:34:36.234Z,31.65
2022-08-10T10:37:07.159Z,31.76
2022-08-10T10:39:43.175Z,31.90
2022-08-10T10:42:45.978Z,32.09
2022-08-10T10:45:20.218Z,32.41
2022-08-10T10:48:02.999Z,32.36
2022-08-10T10:50:55.233Z,32.41
2022-08-10T10:53:53.693Z,32.46
2022-08-10T10:56:31.611Z,32.30
2022-08-10T10:59:16.021Z,32.35
2022-08-10T11:02:26.660Z,32.71
2022-08-10T11:05:35.565Z,32.67
2022-08-10T11:08:20.353Z,32.77
2022-08-10T11:12:00.711Z,32.91
2022-08-10T11:14:29.303Z,32.91
2022-08-10T11:17:15.098Z,32.95
2022-08-10T11:20:00.379Z,33.02
2022-08-10T11:22:36.860Z,32.98
2022-08-10T11:25:46.104Z,32.65
2022-08-10T11:28:22.536Z,32.28
2022-08-10T11:30:50.524Z,32.13
2022-08-10T11:34:04.046Z,32.05
2022-08-10T11:36:43.494Z,31.99
2022-08-10T11:39:26.669Z,32.00
2022-08-10T11:42:09.205Z,32.07
2022-08-10T11:44:48.848Z,32.16
2022-08-10T11:47:23.681Z,32.21
2022-08-10T11:49:51.678Z,32.29
2022-08-10T11:52:29.661Z,32.39
2022-08-10T11:55:01.322Z,32.49
2022-08-10T11:57:53.586Z,32.60
2022-08-10T12:00:21.670Z,32.74
2022-08-10T12:03:11.322Z,32.88
2022-08-10T12:05:55.399Z,32.93
2022-08-10T12:10:11.307Z,32.97
2022-08-10T12:11:41.774Z,32.96
2022-08-10T12:14:22.211Z,32.96
2022-08-10T12:17:04.089Z,33.04
2022-08-10T12:19:59.626Z,33.15
2022-08-10T12:23:05.662Z,33.29
2022-08-10T12:25:55.707Z,33.27
2022-08-10T12:28:50.121Z,33.24
2022-08-10T12:31:23.640Z,33.35
2022-08-10T12:34:03.019Z,33.46
2022-08-10T12:36:43.416Z,33.66
2022-08-10T12:39:32.664Z,33.74
2022-08-10T12:42:39.016Z,33.86
2022-08-10T12:45:17.484Z,33.84
2022-08-10T12:47:57.582Z,33.82
2022-08-10T12:50:41.438Z,33.88
2022-08-10T12:53:40.173Z,33.77
2022-08-10T12:56:07.918Z,33.65
2022-08-10T12:58:59.753Z,33.54
2022-08-10T13:02:06.919Z,33.58
2022-08-10T13:04:32.408Z,33.58
2022-08-10T13:07:03.988Z,33.52
2022-08-10T13:09:32.588Z,33.53
2022-08-10T13:12:35.042Z,33.68
2022-08-10T13:14:59.683Z,33.77
2022-08-10T13:17:39.557Z,33.78
2022-08-10T13:20:25.349Z,33.83
2022-08-10T13:22:58.917Z,33.86
2022-08-10T13:25:31.583Z,33.86
2022-08-10T13:28:35.470Z,33.78
2022-08-10T13:31:07.747Z,33.68
2022-08-10T13:34:39.631Z,33.63
2022-08-10T13:36:40.283Z,33.53
2022-08-10T13:39:08.789Z,33.45
2022-08-10T13:41:50.640Z,33.38
2022-08-10T13:44:33.011Z,33.22
2022-08-10T13:47:01.102Z,33.09
2022-08-10T13:49:31.439Z,33.03
2022-08-10T13:51:59.078Z,32.97
2022-08-10T13:54:41.388Z,32.84
2022-08-10T13:57:11.706Z,32.73
2022-08-10T14:00:33.692Z,32.67
2022-08-10T14:03:06.094Z,32.59
2022-08-10T14:05:36.410Z,32.51
2022-08-10T14:08:13.822Z,32.42
2022-08-10T14:11:02.028Z,32.37
2022-08-10T14:13:37.481Z,32.32
2022-08-10T14:16:19.933Z,32.33
2022-08-10T14:18:50.655Z,32.37
2022-08-10T14:21:21.613Z,32.37
2022-08-10T14:23:52.895Z,32.41
2022-08-10T14:26:26.969Z,32.39
2022-08-10T14:32:02.300Z,32.36
2022-08-10T14:36:16.914Z,32.32
2022-08-10T14:37:44.159Z,32.23
2022-08-10T14:40:23.132Z,32.16
2022-08-10T14:42:53.212Z,32.14
2022-08-10T14:45:41.498Z,32.05
2022-08-10T14:48:16.971Z,32.01
2022-08-10T14:50:55.241Z,31.97
2022-08-10T14:53:30.854Z,31.88
2022-08-10T15:02:01.423Z,31.69
2022-08-10T15:04:37.923Z,31.63
2022-08-10T15:07:24.323Z,31.58
2022-08-10T15:10:10.528Z,31.51
2022-08-10T15:18:13.677Z,31.45
2022-08-10T15:21:02.361Z,31.39
2022-08-10T15:27:16.125Z,31.41
2022-08-10T15:30:17.483Z,31.45
2022-08-10T15:33:21.549Z,31.43
2022-08-10T15:36:27.904Z,31.35
2022-08-10T15:40:21.557Z,31.28
2022-08-10T15:43:25.169Z,31.23
2022-08-10T16:17:06.656Z,29.99
2022-08-10T16:19:42.296Z,29.93
2022-08-10T16:22:34.008Z,29.87
2022-08-10T16:25:13.570Z,29.80
2022-08-10T16:27:46.577Z,29.76
2022-08-10T16:30:21.331Z,29.67
2022-08-10T16:32:50.903Z,29.58
2022-08-10T16:35:22.179Z,29.52
2022-08-10T16:38:12.132Z,29.45
2022-08-10T16:40:42.659Z,29.41
2022-08-10T16:43:12.844Z,29.36
2022-08-10T16:45:48.097Z,29.30
2022-08-10T16:48:49.529Z,29.25
2022-08-10T16:51:45.161Z,29.21
2022-08-10T16:54:27.846Z,29.14
2022-08-10T16:59:47.610Z,29.03
2022-08-10T17:02:17.951Z,29.03
2022-08-10T17:04:47.583Z,29.00
2022-08-10T17:07:18.058Z,28.96
2022-08-10T17:09:51.422Z,28.94
2022-08-10T17:12:27.045Z,28.91
2022-08-10T17:15:09.134Z,28.85
2022-08-10T17:17:49.567Z,28.79
2022-08-10T17:20:42.115Z,28.73
2022-08-10T17:23:26.331Z,28.67
2022-08-10T17:31:56.633Z,28.52
2022-08-10T17:34:37.465Z,28.54
2022-08-10T17:37:26.032Z,28.54
2022-08-10T17:40:39.518Z,28.34
2022-08-10T17:43:11.154Z,28.35
2022-08-10T17:45:49.008Z,28.24
2022-08-10T17:57:40.739Z,28.01
2022-08-10T18:00:30.970Z,27.94
2022-08-10T18:06:13.388Z,27.85
2022-08-10T18:09:11.463Z,27.85
2022-08-10T18:11:46.577Z,27.83
2022-08-10T18:17:41.498Z,27.72
2022-08-10T18:20:28.353Z,27.68
2022-08-10T18:23:26.900Z,27.64
2022-08-10T18:26:05.627Z,27.59
2022-08-10T19:44:46.059Z,27.67
2022-08-10T19:47:36.750Z,27.60
2022-08-10T19:50:21.886Z,27.64
2022-08-10T19:52:59.658Z,27.61
2022-08-10T19:55:41.379Z,27.60
2022-08-10T19:58:21.328Z,27.71
2022-08-10T20:01:00.569Z,27.73
2022-08-10T20:03:41.790Z,27.63
2022-08-10T20:06:19.568Z,27.45
2022-08-10T20:09:08.629Z,27.52
2022-08-10T20:11:47.193Z,27.50
2022-08-10T20:14:23.150Z,27.49
2022-08-10T20:16:56.211Z,27.45
2022-08-10T20:19:52.977Z,27.41
2022-08-10T20:22:28.754Z,27.47
2022-08-10T20:25:04.121Z,27.34
2022-08-10T20:28:00.184Z,27.28
2022-08-10T20:30:32.574Z,27.27
2022-08-10T20:33:09.878Z,27.28
2022-08-10T20:35:53.293Z,27.33
2022-08-10T20:38:35.875Z,27.41
2022-08-10T20:41:43.708Z,27.48
2022-08-10T20:44:22.532Z,27.14
2022-08-10T20:47:14.331Z,26.68
2022-08-10T20:49:54.717Z,26.37
2022-08-10T20:52:28.984Z,26.12
2022-08-10T20:55:01.912Z,25.95
2022-08-10T20:58:03.354Z,25.83
2022-08-10T21:01:04.956Z,25.71
2022-08-10T21:03:48.046Z,25.65
2022-08-10T21:06:43.911Z,25.57
2022-08-10T21:09:50.690Z,25.54
2022-08-10T21:12:27.604Z,25.52
2022-08-10T21:15:25.946Z,25.49
2022-08-10T21:18:20.493Z,25.44
2022-08-10T21:21:16.599Z,25.39
2022-08-10T21:23:49.420Z,25.33
2022-08-10T21:26:20.198Z,25.29
2022-08-10T21:29:09.589Z,25.25
2022-08-10T21:31:57.305Z,25.22
2022-08-10T21:34:34.824Z,25.18
2022-08-10T21:37:25.131Z,25.18
2022-08-10T21:40:35.255Z,25.17
2022-08-10T21:43:59.036Z,25.11
2022-08-10T21:47:10.800Z,25.02
2022-08-10T21:50:09.490Z,24.98
2022-08-10T21:53:00.882Z,24.94
2022-08-10T21:56:46.941Z,24.88
2022-08-10T21:59:42.063Z,24.82
2022-08-10T22:02:32.085Z,24.79
2022-08-10T22:05:20.370Z,24.73
2022-08-10T22:08:13.029Z,24.68
2022-08-10T22:11:14.358Z,24.66
2022-08-10T22:14:06.078Z,24.64
2022-08-10T22:17:04.317Z,24.73
2022-08-10T22:19:54.921Z,24.69
2022-08-10T22:22:56.286Z,24.64
2022-08-10T22:26:07.591Z,24.68
2022-08-10T22:29:12.707Z,24.63
2022-08-10T22:32:07.735Z,24.63
2022-08-10T22:34:59.487Z,24.58
2022-08-10T22:37:55.207Z,24.58
2022-08-10T22:40:42.326Z,24.56
2022-08-10T22:43:37.127Z,24.53
2022-08-10T22:46:27.934Z,24.49
2022-08-10T22:49:01.706Z,24.45
2022-08-10T22:51:50.542Z,24.42
2022-08-10T22:54:41.536Z,24.39
2022-08-10T22:57:32.600Z,24.36
2022-08-10T23:00:11.138Z,24.30
2022-08-10T23:02:55.607Z,24.28
2022-08-10T23:05:34.192Z,24.26
2022-08-10T23:08:09.150Z,24.29
2022-08-10T23:10:43.066Z,24.19
2022-08-10T23:13:35.466Z,24.13
2022-08-10T23:16:41.024Z,24.14
2022-08-10T23:19:23.307Z,24.40
2022-08-10T23:22:06.145Z,24.37
2022-08-10T23:24:38.795Z,24.38
2022-08-10T23:27:12.256Z,24.34
2022-08-10T23:30:04.014Z,24.18
2022-08-10T23:32:33.590Z,24.14
2022-08-10T23:36:21.358Z,24.24
2022-08-10T23:37:57.114Z,24.30
2022-08-10T23:40:26.360Z,24.34
2022-08-10T23:42:55.059Z,24.30
2022-08-10T23:45:24.370Z,24.24
2022-08-10T23:47:56.117Z,24.45
2022-08-10T23:50:24.596Z,24.44
2022-08-10T23:52:54.873Z,24.35
2022-08-10T23:55:29.391Z,24.40
2022-08-10T23:58:33.060Z,24.47
